createdAt,value
2018-05-27T00:02:00.877Z,8.20
2018-05-27T00:04:27.573Z,8.83
2018-05-27T00:06:54.247Z,9.00
2018-05-27T00:09:20.947Z,8.60
2018-05-27T00:11:47.648Z,8.90
2018-05-27T00:14:14.323Z,8.53
2018-05-27T00:16:41.027Z,7.80
2018-05-27T00:19:07.795Z,9.57
2018-05-27T00:21:34.485Z,8.70
2018-05-27T00:24:01.160Z,9.10
2018-05-27T00:26:27.872Z,9.30
2018-05-27T00:28:54.583Z,9.60
2018-05-27T00:31:21.287Z,9.33
2018-05-27T00:33:47.956Z,9.70
2018-05-27T00:36:14.676Z,8.83
2018-05-27T00:38:41.766Z,9.80
2018-05-27T00:41:08.503Z,10.20
2018-05-27T00:43:35.183Z,9.87
2018-05-27T00:46:01.856Z,8.87
2018-05-27T00:48:28.602Z,10.33
2018-05-27T00:50:55.283Z,10.47
2018-05-27T00:53:27.938Z,10.50
2018-05-27T00:55:54.629Z,18.27
2018-05-27T00:58:21.348Z,10.50
2018-05-27T01:00:48.033Z,10.70
2018-05-27T01:03:14.751Z,10.30
2018-05-27T01:05:41.434Z,10.53
2018-05-27T01:08:08.249Z,10.80
2018-05-27T01:10:34.942Z,10.80
2018-05-27T01:13:01.619Z,10.63
2018-05-27T01:15:28.328Z,12.33
2018-05-27T01:17:55.021Z,11.20
2018-05-27T01:20:21.734Z,11.20
2018-05-27T01:22:48.418Z,12.03
2018-05-27T01:25:15.154Z,11.03
2018-05-27T01:27:41.840Z,12.13
2018-05-27T01:30:08.560Z,14.40
2018-05-27T01:32:35.255Z,10.97
2018-05-27T01:35:01.969Z,12.37
2018-05-27T01:37:28.729Z,12.13
2018-05-27T01:39:55.436Z,13.07
2018-05-27T01:42:22.127Z,12.23
2018-05-27T01:44:48.827Z,12.13
2018-05-27T01:47:15.532Z,12.33
2018-05-27T01:49:42.287Z,12.37
2018-05-27T01:52:09.000Z,11.77
2018-05-27T01:54:35.700Z,13.10
2018-05-27T01:57:02.416Z,12.00
2018-05-27T01:59:29.143Z,12.23
2018-05-27T02:01:55.916Z,12.83
2018-05-27T02:04:22.624Z,12.00
2018-05-27T02:06:49.308Z,14.33
2018-05-27T02:09:16.255Z,12.03
2018-05-27T02:11:42.964Z,11.87
2018-05-27T02:14:09.651Z,12.57
2018-05-27T02:16:36.344Z,13.10
2018-05-27T02:19:03.016Z,14.03
2018-05-27T02:21:29.749Z,12.23
2018-05-27T02:23:56.487Z,13.37
2018-05-27T02:26:23.147Z,13.03
2018-05-27T02:28:49.828Z,14.90
2018-05-27T02:31:16.580Z,12.43
2018-05-27T02:33:43.268Z,14.53
2018-05-27T02:36:09.972Z,12.33
2018-05-27T02:38:36.655Z,12.90
2018-05-27T02:41:03.384Z,12.60
2018-05-27T02:43:30.095Z,12.33
2018-05-27T02:45:56.799Z,12.63
2018-05-27T02:48:23.511Z,13.63
2018-05-27T02:50:50.221Z,12.90
2018-05-27T02:53:16.929Z,12.50
2018-05-27T02:55:43.804Z,11.67
2018-05-27T02:58:10.470Z,11.70
2018-05-27T03:00:37.176Z,14.43
2018-05-27T03:03:03.858Z,12.67
2018-05-27T03:05:30.580Z,13.87
2018-05-27T03:07:57.263Z,12.80
2018-05-27T03:10:23.960Z,12.90
2018-05-27T03:12:50.660Z,13.40
2018-05-27T03:15:17.380Z,13.43
2018-05-27T03:17:44.223Z,13.50
2018-05-27T03:20:10.899Z,13.77
2018-05-27T03:22:37.579Z,12.03
2018-05-27T03:25:04.283Z,19.93
2018-05-27T03:27:30.964Z,12.83
2018-05-27T03:29:57.676Z,14.40
2018-05-27T03:32:24.381Z,14.53
2018-05-27T03:34:51.059Z,13.00
2018-05-27T03:37:17.755Z,14.03
2018-05-27T03:39:44.464Z,13.03
2018-05-27T03:42:11.163Z,13.70
2018-05-27T03:44:37.911Z,13.73
2018-05-27T03:47:04.602Z,15.40
2018-05-27T03:49:31.318Z,13.20
2018-05-27T03:51:58.005Z,12.53
2018-05-27T03:54:24.724Z,13.23
2018-05-27T03:56:51.408Z,14.40
2018-05-27T03:59:18.116Z,13.00
2018-05-27T04:01:44.823Z,13.93
2018-05-27T04:04:17.375Z,12.27
2018-05-27T04:06:49.944Z,13.97
2018-05-27T04:09:16.812Z,12.53
2018-05-27T04:11:43.508Z,13.70
2018-05-27T04:14:10.296Z,12.57
2018-05-27T04:16:37.003Z,14.13
2018-05-27T04:19:03.691Z,13.57
2018-05-27T04:21:30.445Z,13.63
2018-05-27T04:23:57.128Z,12.23
2018-05-27T04:26:23.840Z,14.13
2018-05-27T04:28:50.546Z,12.97
2018-05-27T04:31:17.248Z,14.17
2018-05-27T04:33:43.949Z,13.17
2018-05-27T04:36:10.644Z,13.03
2018-05-27T04:38:37.353Z,13.20
2018-05-27T04:41:04.037Z,14.37
2018-05-27T04:43:30.752Z,13.63
2018-05-27T04:45:57.456Z,14.00
2018-05-27T04:48:24.165Z,13.17
2018-05-27T04:50:50.839Z,12.80
2018-05-27T04:53:17.540Z,12.60
2018-05-27T04:55:44.298Z,13.00
2018-05-27T04:58:11.036Z,12.57
2018-05-27T05:00:37.743Z,13.20
2018-05-27T05:03:04.428Z,12.47
2018-05-27T05:05:31.151Z,13.23
2018-05-27T05:07:57.860Z,12.30
2018-05-27T05:10:24.550Z,11.03
2018-05-27T05:12:51.236Z,11.20
2018-05-27T05:15:17.932Z,12.80
2018-05-27T05:17:44.612Z,12.73
2018-05-27T05:20:11.387Z,12.13
2018-05-27T05:22:38.064Z,12.40
2018-05-27T05:25:04.742Z,12.57
2018-05-27T05:27:31.555Z,12.20
2018-05-27T05:29:58.235Z,11.47
2018-05-27T05:32:25.028Z,12.10
2018-05-27T05:34:51.708Z,14.53
2018-05-27T05:37:18.414Z,14.00
2018-05-27T05:39:45.133Z,11.70
2018-05-27T05:42:11.840Z,12.87
2018-05-27T05:44:38.563Z,11.73
2018-05-27T05:47:05.271Z,12.60
2018-05-27T05:49:31.964Z,12.57
2018-05-27T05:51:58.663Z,13.20
2018-05-27T05:54:25.363Z,12.40
2018-05-27T05:56:52.056Z,13.07
2018-05-27T05:59:18.788Z,12.70
2018-05-27T06:01:45.476Z,11.40
2018-05-27T06:04:12.182Z,14.27
2018-05-27T06:06:38.948Z,13.30
2018-05-27T06:09:05.628Z,12.73
2018-05-27T06:11:32.353Z,12.63
2018-05-27T06:13:59.135Z,12.53
2018-05-27T06:16:25.867Z,11.47
2018-05-27T06:18:52.608Z,12.70
2018-05-27T06:21:19.333Z,11.13
2018-05-27T06:23:46.031Z,12.03
2018-05-27T06:26:12.747Z,11.33
2018-05-27T06:28:39.447Z,10.67
2018-05-27T06:31:06.175Z,11.80
2018-05-27T06:33:32.960Z,11.40
2018-05-27T06:35:59.704Z,11.93
2018-05-27T06:38:26.417Z,12.37
2018-05-27T06:40:53.092Z,9.87
2018-05-27T06:43:19.856Z,12.40
2018-05-27T06:45:46.674Z,10.33
2018-05-27T06:48:13.372Z,10.53
2018-05-27T06:50:40.072Z,10.27
2018-05-27T06:53:06.920Z,10.40
2018-05-27T06:55:33.592Z,9.40
2018-05-27T06:58:00.301Z,8.70
2018-05-27T07:00:26.984Z,9.27
2018-05-27T07:02:53.783Z,8.77
2018-05-27T07:05:20.495Z,8.60
2018-05-27T07:07:47.289Z,10.27
2018-05-27T07:10:14.014Z,10.00
2018-05-27T07:12:40.684Z,9.90
2018-05-27T07:15:07.404Z,8.50
2018-05-27T07:17:34.096Z,8.87
2018-05-27T07:20:00.790Z,10.73
2018-05-27T07:22:27.469Z,9.27
2018-05-27T07:24:54.247Z,8.87
2018-05-27T07:27:20.951Z,9.50
2018-05-27T07:29:47.724Z,9.27
2018-05-27T07:32:14.451Z,8.60
2018-05-27T07:34:41.141Z,8.83
2018-05-27T07:37:07.810Z,10.43
2018-05-27T07:39:34.496Z,9.00
2018-05-27T07:42:01.215Z,9.93
2018-05-27T07:44:27.911Z,10.03
2018-05-27T07:46:54.631Z,8.77
2018-05-27T07:49:21.482Z,8.97
2018-05-27T07:51:48.153Z,9.30
2018-05-27T07:54:14.876Z,10.10
2018-05-27T07:56:41.607Z,10.07
2018-05-27T07:59:08.283Z,8.87
2018-05-27T08:01:34.988Z,10.67
2018-05-27T08:04:01.680Z,9.40
2018-05-27T08:06:28.392Z,9.77
2018-05-27T08:08:55.247Z,8.70
2018-05-27T08:11:21.933Z,8.57
2018-05-27T08:13:48.636Z,8.90
2018-05-27T08:16:15.414Z,8.37
2018-05-27T08:18:42.107Z,9.13
2018-05-27T08:21:08.784Z,9.10
2018-05-27T08:23:35.468Z,9.77
2018-05-27T08:26:02.216Z,8.77
2018-05-27T08:28:29.013Z,9.83
2018-05-27T08:30:55.717Z,9.63
2018-05-27T08:33:22.410Z,9.53
2018-05-27T08:35:49.117Z,9.30
2018-05-27T08:38:15.795Z,10.03
2018-05-27T08:40:42.519Z,9.23
2018-05-27T08:43:09.223Z,8.67
2018-05-27T08:45:35.919Z,9.00
2018-05-27T08:48:02.624Z,8.40
2018-05-27T08:50:29.312Z,9.43
2018-05-27T08:52:56.021Z,9.73
2018-05-27T08:55:22.850Z,8.07
2018-05-27T08:57:49.565Z,8.90
2018-05-27T09:00:16.255Z,9.10
2018-05-27T09:02:42.967Z,9.07
2018-05-27T09:05:09.687Z,8.97
2018-05-27T09:07:36.396Z,8.50
2018-05-27T09:10:03.113Z,9.60
2018-05-27T09:12:29.820Z,8.30
2018-05-27T09:14:56.497Z,9.33
2018-05-27T09:17:23.181Z,9.00
2018-05-27T09:19:49.905Z,8.43
2018-05-27T09:22:16.646Z,7.87
2018-05-27T09:24:43.331Z,9.07
2018-05-27T09:27:10.032Z,9.47
2018-05-27T09:29:36.736Z,9.30
2018-05-27T09:32:03.423Z,8.30
2018-05-27T09:34:30.131Z,9.33
2018-05-27T09:36:56.800Z,8.00
2018-05-27T09:39:23.517Z,7.17
2018-05-27T09:41:50.197Z,6.57
2018-05-27T09:44:16.927Z,8.30
2018-05-27T09:46:43.671Z,7.53
2018-05-27T09:49:10.355Z,6.77
2018-05-27T09:51:37.056Z,7.23
2018-05-27T09:54:03.732Z,7.10
2018-05-27T09:56:30.448Z,8.10
2018-05-27T09:58:57.132Z,7.50
2018-05-27T10:01:23.839Z,6.80
2018-05-27T10:03:50.554Z,7.50
2018-05-27T10:06:17.505Z,7.03
2018-05-27T10:08:44.199Z,6.90
2018-05-27T10:11:10.875Z,6.17
2018-05-27T10:13:37.619Z,7.00
2018-05-27T10:16:04.320Z,6.60
2018-05-27T10:18:31.094Z,6.37
2018-05-27T10:20:57.781Z,6.97
2018-05-27T10:23:24.471Z,6.07
2018-05-27T10:25:51.237Z,5.93
2018-05-27T10:28:17.932Z,5.77
2018-05-27T10:30:44.613Z,6.60
2018-05-27T10:33:11.311Z,6.00
2018-05-27T10:35:38.004Z,7.17
2018-05-27T10:38:04.723Z,5.40
2018-05-27T10:40:31.423Z,5.73
2018-05-27T10:42:58.141Z,6.03
2018-05-27T10:45:24.836Z,5.57
2018-05-27T10:47:51.516Z,6.20
2018-05-27T10:50:18.220Z,5.50
2018-05-27T10:52:44.972Z,5.93
2018-05-27T10:55:11.679Z,5.80
2018-05-27T10:57:38.375Z,4.77
2018-05-27T11:00:05.048Z,5.20
2018-05-27T11:02:31.771Z,5.50
2018-05-27T11:04:58.453Z,6.10
2018-05-27T11:07:25.194Z,6.30
2018-05-27T11:09:51.899Z,6.93
2018-05-27T11:12:18.583Z,6.83
2018-05-27T11:14:45.584Z,6.70
2018-05-27T11:17:12.280Z,8.10
2018-05-27T11:19:39.017Z,7.87
2018-05-27T11:22:05.688Z,7.00
2018-05-27T11:24:32.363Z,8.23
2018-05-27T11:26:59.045Z,7.97
2018-05-27T11:29:25.759Z,7.80
2018-05-27T11:31:52.591Z,7.00
2018-05-27T11:34:19.397Z,7.77
2018-05-27T11:36:46.069Z,7.20
2018-05-27T11:39:12.778Z,8.10
2018-05-27T11:41:39.463Z,7.37
2018-05-27T11:44:06.190Z,7.30
2018-05-27T11:46:32.960Z,7.40
2018-05-27T11:48:59.658Z,7.60
2018-05-27T11:51:26.385Z,7.30
2018-05-27T11:53:53.310Z,7.40
2018-05-27T11:56:20.033Z,16.23
2018-05-27T11:58:46.755Z,10.07
2018-05-27T12:01:13.552Z,10.63
2018-05-27T12:03:40.325Z,10.33
2018-05-27T12:06:07.085Z,11.03
2018-05-27T12:08:33.943Z,10.03
2018-05-27T12:11:00.656Z,12.33
2018-05-27T12:13:27.364Z,12.83
2018-05-27T12:15:54.211Z,10.30
2018-05-27T12:18:20.851Z,10.40
2018-05-27T12:20:47.592Z,12.03
2018-05-27T12:23:14.298Z,11.03
2018-05-27T12:25:41.008Z,12.03
2018-05-27T12:28:07.867Z,11.23
2018-05-27T12:30:34.555Z,9.37
2018-05-27T12:33:01.273Z,10.20
2018-05-27T12:35:28.005Z,10.50
2018-05-27T12:37:54.680Z,9.60
2018-05-27T12:40:21.443Z,9.60
2018-05-27T12:42:48.140Z,9.80
2018-05-27T12:45:14.844Z,10.43
2018-05-27T12:47:41.547Z,9.40
2018-05-27T12:50:08.242Z,9.93
2018-05-27T12:52:34.952Z,8.23
2018-05-27T12:55:01.681Z,9.50
2018-05-27T12:57:28.395Z,9.60
2018-05-27T12:59:55.934Z,9.63
2018-05-27T13:02:22.648Z,9.13
2018-05-27T13:04:49.342Z,7.97
2018-05-27T13:07:16.179Z,8.27
2018-05-27T13:09:42.855Z,8.43
2018-05-27T13:12:09.537Z,9.20
2018-05-27T13:14:36.250Z,8.73
2018-05-27T13:17:02.978Z,8.80
2018-05-27T13:19:29.630Z,8.90
2018-05-27T13:21:56.335Z,8.63
2018-05-27T13:24:23.035Z,7.70
2018-05-27T13:26:49.739Z,8.20
2018-05-27T13:29:16.492Z,7.87
2018-05-27T13:31:43.262Z,8.67
2018-05-27T13:34:09.976Z,7.43
2018-05-27T13:36:36.659Z,7.80
2018-05-27T13:39:03.367Z,7.53
2018-05-27T13:41:30.043Z,6.13
2018-05-27T13:43:56.749Z,7.53
2018-05-27T13:46:23.440Z,12.00
2018-05-27T13:48:50.150Z,6.20
2018-05-27T13:51:16.817Z,7.10
2018-05-27T13:53:43.500Z,7.23
2018-05-27T13:56:10.213Z,6.97
2018-05-27T13:58:36.879Z,7.90
2018-05-27T14:01:03.561Z,6.13
2018-05-27T14:03:30.279Z,6.27
2018-05-27T14:05:57.081Z,6.60
2018-05-27T14:08:23.759Z,6.43
2018-05-27T14:10:50.500Z,7.30
2018-05-27T14:13:17.195Z,6.13
2018-05-27T14:15:43.924Z,6.83
2018-05-27T14:18:10.603Z,6.63
2018-05-27T14:20:37.335Z,6.23
2018-05-27T14:23:04.031Z,7.20
2018-05-27T14:25:30.715Z,6.93
2018-05-27T14:27:57.439Z,6.03
2018-05-27T14:30:24.348Z,6.53
2018-05-27T14:32:51.060Z,6.40
2018-05-27T14:35:17.811Z,6.30
2018-05-27T14:37:44.572Z,5.40
2018-05-27T14:40:11.369Z,5.77
2018-05-27T14:42:38.079Z,5.20
2018-05-27T14:45:04.779Z,5.60
2018-05-27T14:47:31.477Z,6.10
2018-05-27T14:49:58.208Z,7.10
2018-05-27T14:52:24.886Z,6.83
2018-05-27T14:54:51.591Z,5.50
2018-05-27T14:57:18.325Z,5.13
2018-05-27T14:59:45.027Z,7.13
2018-05-27T15:02:12.551Z,6.33
2018-05-27T15:04:39.254Z,6.07
2018-05-27T15:07:05.991Z,4.93
2018-05-27T15:09:32.664Z,6.97
2018-05-27T15:11:59.492Z,6.37
2018-05-27T15:14:26.229Z,4.90
2018-05-27T15:16:52.944Z,4.83
2018-05-27T15:19:19.757Z,5.53
2018-05-27T15:21:46.502Z,4.80
2018-05-27T15:24:13.176Z,5.20
2018-05-27T15:26:40.043Z,5.63
2018-05-27T15:29:06.821Z,6.23
2018-05-27T15:31:33.532Z,5.57
2018-05-27T15:34:00.223Z,6.70
2018-05-27T15:36:26.918Z,5.90
2018-05-27T15:38:53.648Z,6.17
2018-05-27T15:41:20.339Z,6.57
2018-05-27T15:43:47.042Z,5.57
2018-05-27T15:46:13.744Z,6.50
2018-05-27T15:48:40.438Z,6.00
2018-05-27T15:51:07.117Z,6.37
2018-05-27T15:53:33.832Z,7.07
2018-05-27T15:56:00.508Z,6.10
2018-05-27T15:58:27.236Z,7.00
2018-05-27T16:00:53.924Z,7.30
2018-05-27T16:03:20.646Z,6.80
2018-05-27T16:05:47.344Z,6.50
2018-05-27T16:08:14.022Z,9.13
2018-05-27T16:10:40.762Z,7.30
2018-05-27T16:13:07.451Z,7.17
2018-05-27T16:15:34.172Z,7.43
2018-05-27T16:18:00.843Z,8.13
2018-05-27T16:20:27.678Z,7.43
2018-05-27T16:22:54.381Z,8.83
2018-05-27T16:25:21.064Z,7.90
2018-05-27T16:27:47.769Z,8.40
2018-05-27T16:30:14.460Z,8.40
2018-05-27T16:32:41.161Z,9.10
2018-05-27T16:35:07.841Z,9.10
2018-05-27T16:37:34.544Z,9.70
2018-05-27T16:40:01.307Z,9.60
2018-05-27T16:42:28.322Z,10.73
2018-05-27T16:44:55.045Z,10.20
2018-05-27T16:47:21.757Z,11.13
2018-05-27T16:49:48.431Z,10.10
2018-05-27T16:52:15.176Z,10.10
2018-05-27T16:54:41.888Z,8.47
2018-05-27T16:57:08.606Z,9.27
2018-05-27T16:59:35.316Z,12.63
2018-05-27T17:02:02.023Z,8.60
2018-05-27T17:04:28.749Z,7.43
2018-05-27T17:06:55.433Z,7.80
2018-05-27T17:09:22.107Z,4.83
2018-05-27T17:11:48.832Z,9.97
2018-05-27T17:14:15.535Z,7.00
2018-05-27T17:16:42.245Z,5.07
2018-05-27T17:19:08.928Z,6.13
2018-05-27T17:21:35.641Z,8.20
2018-05-27T17:24:02.331Z,7.40
2018-05-27T17:26:29.021Z,9.73
2018-05-27T17:28:55.733Z,7.10
2018-05-27T17:31:22.450Z,4.50
2018-05-27T17:33:49.172Z,5.20
2018-05-27T17:36:15.865Z,4.53
2018-05-27T17:38:42.590Z,4.90
2018-05-27T17:41:09.268Z,5.10
2018-05-27T17:43:35.998Z,4.57
2018-05-27T17:46:03.425Z,4.53
2018-05-27T17:48:31.019Z,5.00
2018-05-27T17:50:58.133Z,7.57
2018-05-27T17:53:24.844Z,6.57
2018-05-27T17:55:52.025Z,5.50
2018-05-27T17:58:19.103Z,4.90
2018-05-27T18:00:45.858Z,5.93
2018-05-27T18:03:13.238Z,10.03
2018-05-27T18:05:40.002Z,4.57
2018-05-27T18:08:06.835Z,7.33
2018-05-27T18:10:34.328Z,6.53
2018-05-27T18:13:01.048Z,6.20
2018-05-27T18:15:27.823Z,9.53
2018-05-27T18:17:54.585Z,5.37
2018-05-27T18:20:21.306Z,5.40
2018-05-27T18:22:48.087Z,6.17
2018-05-27T18:25:14.788Z,5.40
2018-05-27T18:27:41.569Z,6.40
2018-05-27T18:30:08.277Z,5.27
2018-05-27T18:32:35.001Z,6.37
2018-05-27T18:35:01.692Z,5.13
2018-05-27T18:37:28.376Z,5.57
2018-05-27T18:39:55.067Z,6.40
2018-05-27T18:42:22.029Z,5.37
2018-05-27T18:44:48.735Z,5.63
2018-05-27T18:47:15.423Z,5.33
2018-05-27T18:49:42.110Z,5.23
2018-05-27T18:52:08.817Z,8.93
2018-05-27T18:54:35.536Z,6.20
2018-05-27T18:57:02.245Z,7.40
2018-05-27T18:59:28.960Z,8.80
2018-05-27T19:01:55.657Z,6.83
2018-05-27T19:04:22.452Z,6.73
2018-05-27T19:06:49.146Z,5.93
2018-05-27T19:09:15.947Z,5.53
2018-05-27T19:11:42.628Z,5.53
2018-05-27T19:14:09.339Z,6.40
2018-05-27T19:16:36.072Z,5.63
2018-05-27T19:19:02.754Z,7.43
2018-05-27T19:21:29.471Z,6.70
2018-05-27T19:23:56.200Z,7.33
2018-05-27T19:26:22.950Z,7.33
2018-05-27T19:28:49.649Z,6.80
2018-05-27T19:31:16.334Z,7.50
2018-05-27T19:33:43.020Z,5.93
2018-05-27T19:36:09.762Z,5.90
2018-05-27T19:38:36.495Z,6.70
2018-05-27T19:41:03.231Z,6.43
2018-05-27T19:43:29.907Z,6.37
2018-05-27T19:45:56.592Z,6.00
2018-05-27T19:48:23.497Z,6.20
2018-05-27T19:50:50.205Z,6.57
2018-05-27T19:53:16.913Z,6.40
2018-05-27T19:55:43.681Z,6.90
2018-05-27T19:58:10.512Z,7.10
2018-05-27T20:00:37.200Z,7.37
2018-05-27T20:03:03.886Z,6.40
2018-05-27T20:05:30.628Z,7.73
2018-05-27T20:07:57.345Z,7.93
2018-05-27T20:10:24.051Z,8.43
2018-05-27T20:12:50.731Z,8.40
2018-05-27T20:15:17.453Z,9.57
2018-05-27T20:17:44.142Z,8.07
2018-05-27T20:20:10.847Z,7.53
2018-05-27T20:22:37.547Z,7.93
2018-05-27T20:25:04.289Z,8.23
2018-05-27T20:27:30.964Z,8.53
2018-05-27T20:29:57.690Z,7.10
2018-05-27T20:32:24.381Z,7.83
2018-05-27T20:34:51.064Z,6.73
2018-05-27T20:37:17.773Z,7.50
2018-05-27T20:39:44.445Z,7.50
2018-05-27T20:42:11.180Z,6.70
2018-05-27T20:44:37.899Z,6.90
2018-05-27T20:47:04.587Z,8.20
2018-05-27T20:49:31.299Z,8.30
2018-05-27T20:51:57.987Z,7.83
2018-05-27T20:54:24.700Z,8.63
2018-05-27T20:56:51.458Z,8.83
2018-05-27T20:59:18.188Z,7.40
2018-05-27T21:01:44.891Z,8.00
2018-05-27T21:04:11.619Z,9.40
2018-05-27T21:06:38.344Z,8.73
2018-05-27T21:09:05.016Z,9.23
2018-05-27T21:11:31.878Z,10.03
2018-05-27T21:13:58.564Z,8.90
2018-05-27T21:16:25.385Z,9.27
2018-05-27T21:18:52.076Z,8.80
2018-05-27T21:21:18.909Z,9.63
2018-05-27T21:23:45.622Z,9.50
2018-05-27T21:26:12.426Z,9.10
2018-05-27T21:28:39.140Z,10.47
2018-05-27T21:31:05.879Z,10.30
2018-05-27T21:33:32.579Z,10.37
2018-05-27T21:35:59.285Z,10.27
2018-05-27T21:38:26.002Z,11.50
2018-05-27T21:40:52.694Z,9.60
2018-05-27T21:43:19.412Z,10.53
2018-05-27T21:45:46.165Z,10.67
2018-05-27T21:48:12.883Z,11.30
2018-05-27T21:50:40.033Z,15.43
2018-05-27T21:53:06.971Z,12.40
2018-05-27T21:55:33.679Z,12.07
2018-05-27T21:58:00.500Z,10.43
2018-05-27T22:00:27.315Z,12.30
2018-05-27T22:02:54.011Z,14.30
2018-05-27T22:05:20.744Z,13.20
2018-05-27T22:07:47.456Z,11.60
2018-05-27T22:10:14.163Z,11.40
2018-05-27T22:12:40.863Z,12.27
2018-05-27T22:15:07.603Z,10.43
2018-05-27T22:17:34.284Z,11.33
2018-05-27T22:20:01.016Z,13.53
2018-05-27T22:22:27.695Z,10.37
2018-05-27T22:24:54.380Z,11.30
2018-05-27T22:27:21.109Z,13.87
2018-05-27T22:29:47.819Z,12.13
2018-05-27T22:32:14.511Z,12.20
2018-05-27T22:34:41.208Z,12.83
2018-05-27T22:37:07.911Z,13.10
2018-05-27T22:39:34.615Z,10.80
2018-05-27T22:42:01.300Z,15.87
2018-05-27T22:44:28.048Z,11.93
2018-05-27T22:46:54.822Z,12.87
2018-05-27T22:49:22.476Z,12.50
2018-05-27T22:51:49.247Z,20.90
2018-05-27T22:54:16.100Z,16.03
2018-05-27T22:56:42.814Z,12.57
2018-05-27T22:59:09.533Z,13.67
2018-05-27T23:01:36.314Z,12.33
2018-05-27T23:04:03.027Z,11.40
2018-05-27T23:06:29.752Z,14.30
2018-05-27T23:08:56.432Z,11.80
2018-05-27T23:11:23.155Z,13.43
2018-05-27T23:13:50.043Z,12.63
2018-05-27T23:16:16.765Z,9.53
2018-05-27T23:18:43.447Z,8.53
2018-05-27T23:21:10.150Z,11.37
2018-05-27T23:23:36.851Z,11.97
2018-05-27T23:26:03.542Z,12.23
2018-05-27T23:28:30.239Z,11.80
2018-05-27T23:30:56.955Z,39.57
2018-05-27T23:33:23.656Z,9.53
2018-05-27T23:35:50.364Z,5.93
2018-05-27T23:38:17.055Z,7.83
2018-05-27T23:40:43.852Z,8.67
2018-05-27T23:43:10.533Z,11.70
2018-05-27T23:45:37.219Z,8.53
2018-05-27T23:48:03.927Z,8.23
2018-05-27T23:50:30.764Z,12.27
2018-05-27T23:52:57.444Z,11.87
2018-05-27T23:55:24.143Z,15.33
2018-05-27T23:57:50.828Z,12.57
